Stations météo

réclame
Mon MeteoGroup
Leuchtturm Alte Weser, Allemagne (10124): Température de l'air & dewpoint: 15.01.2019 17:00:00 - 21.01.2019 17:00:00 (CET)Leuchtturm Alte Weser, Allemagne (10124): Vitesse du vent & gusts: 15.01.2019 17:00:00 - 21.01.2019 17:00:00 (CET)Leuchtturm Alte Weser, Allemagne (10124): Direction du vent: 15.01.2019 17:00:00 - 21.01.2019 17:00:00 (CET)Leuchtturm Alte Weser, Allemagne (10124): reduced air pressure: 15.01.2019 17:00:00 - 21.01.2019 17:00:00 (CET)Leuchtturm Alte Weser, Allemagne (10124): Ensoleillement: 15.01.2019 17:00:00 - 21.01.2019 17:00:00 (CET)
Date & Time tt [°C] td [°C] ff [km/h] ff [knt] fx [km/h] fx [knt] dd ppp [hPa] sd [min]
21.01.2019 17:00:00 2,4 1,9 29 16 - - WSW 1018,0 0
21.01.2019 16:00:00 2,5 1,9 29 16 - - WSW 1018,1 18
21.01.2019 15:00:00 2,5 2,0 29 16 - - WSW 1018,3 60
21.01.2019 14:00:00 2,0 1,2 32 18 - - SW 1018,8 60
21.01.2019 13:00:00 1,6 0,6 29 16 - - WSW 1019,4 60
21.01.2019 12:00:00 1,4 0,0 32 18 - - WSW 1019,7 24
21.01.2019 11:00:00 1,0 -0,9 32 18 - - WSW 1020,2 0
21.01.2019 10:00:00 0,6 -2,2 36 19 - - WSW 1020,3 0
21.01.2019 09:00:00 0,2 -3,4 32 18 - - SW 1020,4 0
21.01.2019 08:00:00 -0,4 -3,8 32 18 - - SW 1020,5 0
21.01.2019 07:00:00 -1,0 -2,9 29 16 - - SW 1020,6 0
21.01.2019 06:00:00 -1,2 -3,1 25 14 - - SW 1021,0 0
21.01.2019 05:00:00 -1,4 -2,7 25 14 - - SW 1021,3 0
21.01.2019 04:00:00 -0,7 -2,5 25 14 - - SSW 1021,5 0
21.01.2019 03:00:00 -0,7 -3,6 25 14 - - SSW 1022,3 0
21.01.2019 02:00:00 -0,3 -2,4 22 12 - - SW 1022,4 0
21.01.2019 01:00:00 0,0 -2,2 22 12 - - SSW 1022,7 0
21.01.2019 00:00:00 0,4 -2,3 18 10 - - SSW 1022,6 0
20.01.2019 23:00:00 0,8 -1,7 11 6 - - S 1022,5 0
20.01.2019 22:00:00 1,2 -1,3 11 6 - - S 1022,3 0
20.01.2019 21:00:00 1,5 -2,7 7 4 - - SSE 1021,9 0
20.01.2019 20:00:00 1,4 -2,2 7 4 - - SSE 1021,6 0
20.01.2019 19:00:00 1,3 -2,6 7 4 - - SSE 1021,3 0
20.01.2019 18:00:00 1,5 -2,2 11 6 - - SSE 1020,9 0
20.01.2019 17:00:00 1,5 -2,5 7 4 - - SE 1020,6 42
20.01.2019 16:00:00 3,0 -2,3 7 4 - - SSE 1020,4 12
20.01.2019 15:00:00 2,0 -2,5 7 4 - - SSE 1020,1 0
20.01.2019 14:00:00 1,8 -2,3 11 6 - - SE 1020,0 0
20.01.2019 13:00:00 1,6 -2,5 11 6 - - SE 1019,9 0
20.01.2019 12:00:00 1,3 -1,2 11 6 - - S 1019,8 0
20.01.2019 11:00:00 1,2 -0,9 7 4 - - SE 1019,6 0
20.01.2019 10:00:00 0,7 -0,9 7 4 - - SW 1019,0 6
20.01.2019 09:00:00 0,4 -0,9 11 6 - - SW 1018,4 0
20.01.2019 08:00:00 0,2 -1,1 11 6 - - SE 1017,9 0
20.01.2019 07:00:00 0,3 -1,4 14 8 - - SE 1017,4 0
20.01.2019 06:00:00 0,5 -2,0 11 6 - - SSE 1017,4 0
20.01.2019 05:00:00 0,5 -1,7 14 8 - - SSE 1017,2 0
20.01.2019 04:00:00 0,5 -1,5 14 8 - - SE 1017,4 0
20.01.2019 03:00:00 0,7 -1,5 18 10 - - SSE 1017,3 0
20.01.2019 02:00:00 1,2 -1,6 18 10 - - SSE 1017,2 0
20.01.2019 01:00:00 1,6 -1,6 18 10 - - SSE 1017,2 0
20.01.2019 00:00:00 1,9 -2,0 25 14 - - SSE 1017,3 0
19.01.2019 23:00:00 1,9 -1,5 22 12 - - SSE 1017,3 0
19.01.2019 22:00:00 1,7 -1,7 14 8 - - SSE 1017,3 0
19.01.2019 21:00:00 1,9 -2,4 22 12 - - SSE 1017,4 0
19.01.2019 20:00:00 1,7 -2,8 25 14 - - SSE 1017,4 0
19.01.2019 19:00:00 1,8 -3,6 25 14 - - SSE 1017,1 0
19.01.2019 18:00:00 1,9 -3,4 22 12 - - SSE 1017,1 0
19.01.2019 17:00:00 1,8 -3,8 25 14 - - SSE 1017,4 36
19.01.2019 16:00:00 2,7 -2,2 14 8 - - SSE 1017,3 60
19.01.2019 15:00:00 2,1 -2,1 18 10 - - SSE 1017,8 60
19.01.2019 14:00:00 1,9 -1,8 22 12 - - SSE 1018,2 60
19.01.2019 13:00:00 1,8 -2,9 22 12 - - S 1018,6 60
19.01.2019 12:00:00 1,7 -2,0 18 10 - - S 1019,3 60
19.01.2019 11:00:00 1,3 -2,3 22 12 - - S 1019,2 60
19.01.2019 10:00:00 1,3 -1,9 22 12 - - S 1019,0 36
19.01.2019 09:00:00 1,5 -1,7 18 10 - - S 1018,9 0
19.01.2019 08:00:00 1,1 -1,7 22 12 - - SSW 1018,5 0
19.01.2019 07:00:00 1,0 -1,5 18 10 - - SSW 1018,4 0
19.01.2019 06:00:00 1,0 -2,1 22 12 - - SW 1018,5 0
19.01.2019 05:00:00 1,5 -2,9 22 12 - - SW 1018,7 0
19.01.2019 04:00:00 1,4 -2,6 25 14 - - SW 1018,8 0
19.01.2019 03:00:00 1,3 -1,5 25 14 - - SW 1019,0 0
19.01.2019 02:00:00 1,8 -0,6 25 14 - - WSW 1019,1 0
19.01.2019 01:00:00 2,0 0,2 25 14 - - SW 1019,2 0
19.01.2019 00:00:00 2,1 0,6 22 12 - - SW 1019,1 0
18.01.2019 23:00:00 2,9 1,3 25 14 - - SW 1019,0 0
18.01.2019 22:00:00 3,3 1,5 22 12 - - WSW 1018,8 0
18.01.2019 21:00:00 3,0 1,6 25 14 - - WSW 1018,7 0
18.01.2019 20:00:00 3,2 2,4 22 12 - - SW 1018,5 0
18.01.2019 19:00:00 3,3 2,1 29 16 - - WSW 1018,1 0
18.01.2019 18:00:00 3,5 2,3 22 12 - - WSW 1018,0 0
18.01.2019 17:00:00 3,6 2,6 22 12 - - WSW 1018,0 24
18.01.2019 16:00:00 3,5 1,9 22 12 - - WSW 1017,8 60
18.01.2019 15:00:00 3,1 1,8 29 16 - - WSW 1017,5 36
18.01.2019 14:00:00 3,5 1,5 32 18 - - W 1017,3 36
18.01.2019 13:00:00 3,6 1,4 25 14 - - W 1017,1 30
18.01.2019 12:00:00 3,3 1,2 22 12 - - WSW 1017,0 12
18.01.2019 11:00:00 2,6 1,5 14 8 54 29 WSW 1016,8 0
18.01.2019 10:00:00 3,4 1,8 18 10 - - W 1016,1 0
18.01.2019 09:00:00 3,9 1,4 25 14 - - WSW 1015,2 0
18.01.2019 08:00:00 2,5 0,7 43 23 58 31 NW 1014,9 0
18.01.2019 07:00:00 5,1 -1,8 22 12 - - WNW 1014,1 0
18.01.2019 06:00:00 4,9 -3,0 22 12 - - WNW 1013,8 0
18.01.2019 05:00:00 4,3 -2,6 14 8 - - WNW 1013,4 0
18.01.2019 04:00:00 4,1 -2,6 18 10 - - NNW 1012,8 0
18.01.2019 03:00:00 3,5 -2,7 25 14 - - NNW 1012,2 0
18.01.2019 02:00:00 3,2 -3,4 32 18 - - N 1011,3 0
18.01.2019 01:00:00 2,7 -4,3 36 19 - - N 1010,5 0
18.01.2019 00:00:00 1,8 0,0 43 23 54 29 N 1009,1 0
17.01.2019 23:00:00 2,3 -3,1 40 21 50 27 N 1008,0 0
17.01.2019 22:00:00 1,8 -1,2 36 19 - - N 1006,3 0
17.01.2019 21:00:00 1,9 -1,4 43 23 61 33 N 1004,3 0
17.01.2019 20:00:00 2,2 -1,2 54 29 68 37 N 1002,1 0
17.01.2019 19:00:00 4,3 -0,3 50 27 - - NNW 999,9 0
17.01.2019 18:00:00 2,5 1,1 25 14 58 31 W 999,3 0
17.01.2019 17:00:00 1,3 1,2 61 33 79 43 NW 998,3 0
17.01.2019 16:00:00 3,6 1,3 43 23 - - WNW 997,2 18
17.01.2019 15:00:00 4,3 1,5 54 29 65 35 WNW 996,2 42
17.01.2019 14:00:00 4,5 1,3 47 25 65 35 WNW 996,2 0
17.01.2019 13:00:00 5,0 1,2 50 27 - - WNW 995,7 0
17.01.2019 12:00:00 5,2 2,2 43 23 58 31 W 995,6 0
17.01.2019 11:00:00 4,9 3,4 50 27 68 37 WSW 995,2 0
17.01.2019 10:00:00 4,9 3,4 54 29 - - SW 994,6 18
17.01.2019 09:00:00 4,7 3,3 58 31 68 37 SW 994,2 0
17.01.2019 08:00:00 4,7 3,1 58 31 68 37 SW 994,0 0
17.01.2019 07:00:00 4,9 3,4 54 29 - - SW 994,1 0
17.01.2019 06:00:00 5,1 3,4 54 29 65 35 WSW 994,3 0
17.01.2019 05:00:00 5,1 4,0 47 25 58 31 SW 994,7 0
17.01.2019 04:00:00 5,1 3,8 50 27 - - WSW 995,0 0
17.01.2019 03:00:00 5,1 3,4 54 29 65 35 WSW 995,0 0
17.01.2019 02:00:00 5,0 4,1 40 21 47 25 WSW 995,1 0
17.01.2019 01:00:00 5,1 4,4 40 21 - - WSW 995,3 0
17.01.2019 00:00:00 4,8 3,9 43 23 65 35 WSW 995,5 0
16.01.2019 23:00:00 4,9 4,6 54 29 68 37 SW 995,3 0
16.01.2019 22:00:00 5,0 4,4 58 31 - - SW 995,7 0
16.01.2019 21:00:00 4,8 4,8 54 29 68 37 SW 996,3 0
16.01.2019 20:00:00 5,1 4,8 58 31 68 37 SW 997,1 0
16.01.2019 19:00:00 5,4 4,9 58 31 - - SW 997,8 0
16.01.2019 18:00:00 5,8 5,2 54 29 68 37 SW 998,7 0
16.01.2019 17:00:00 5,8 5,7 54 29 68 37 SW 999,6 0
16.01.2019 16:00:00 6,3 5,5 50 27 - - SW 1000,1 0
16.01.2019 15:00:00 6,5 5,9 54 29 68 37 SW 1000,6 0
16.01.2019 14:00:00 6,7 6,2 58 31 68 37 SW 1001,1 0
16.01.2019 13:00:00 7,1 6,6 58 31 - - SW 1001,6 0
16.01.2019 12:00:00 6,8 6,8 50 27 58 31 SW 1002,6 0
16.01.2019 11:00:00 6,7 6,6 50 27 58 31 SW 1003,4 0
16.01.2019 10:00:00 7,2 5,5 47 25 - - SW 1004,0 0
16.01.2019 09:00:00 7,3 5,8 47 25 58 31 SW 1004,2 0
16.01.2019 08:00:00 7,4 6,0 50 27 58 31 WSW 1004,4 0
16.01.2019 07:00:00 7,4 6,2 47 25 - - WSW 1004,9 0
16.01.2019 06:00:00 7,2 6,2 47 25 54 29 WSW 1005,3 0
16.01.2019 05:00:00 7,1 6,2 50 27 61 33 WSW 1006,0 0
16.01.2019 04:00:00 7,1 6,0 50 27 - - WSW 1006,6 0
16.01.2019 03:00:00 7,0 5,9 50 27 65 35 WSW 1007,1 0
16.01.2019 02:00:00 7,0 5,9 54 29 61 33 WSW 1007,3 0
16.01.2019 01:00:00 6,8 5,7 50 27 - - WSW 1007,5 0
16.01.2019 00:00:00 6,7 5,8 50 27 65 35 WSW 1007,8 0
15.01.2019 23:00:00 6,9 6,1 58 31 65 35 WSW 1007,7 0
15.01.2019 22:00:00 6,6 6,6 50 27 - - WSW 1007,9 0
15.01.2019 21:00:00 6,8 6,7 54 29 65 35 W 1007,9 0
15.01.2019 20:00:00 6,5 6,5 54 29 65 35 W 1007,7 0
15.01.2019 19:00:00 6,5 6,5 54 29 - - W 1007,7 0
15.01.2019 18:00:00 6,4 6,4 54 29 65 35 W 1007,8 0
15.01.2019 17:00:00 6,5 6,5 58 31 68 37 W 1008,0 0

tt = Température de l'air
td = dewpoint
ff = Vitesse du vent
fx = gusts
dd = Direction du vent
ppp = reduced air pressure
sd = Ensoleillement

stations d'obs. à proximité